Terminal Aerodrome Forecast
Issued by NWS Sterling, VA

Current Version | Previous Version | Graphics & Text | Print | Product List | Glossary On
Versions: 1 2 3 4 5 6 7 8 9 10 11 12 13
000
FTUS41 KLWX 270839 AAA
TAFMRB
TAF AMD
KMRB 270839Z 2709/2806 31006KT P6SM SCT060
     FM271100 30006KT P6SM BKN060
     FM271400 31011G19KT P6SM BKN060=

USA.gov is the U.S. government's official web portal to all federal, state and local government web resources and services.